createdAt,value
2022-11-28T00:01:33.590Z,9.16
2022-11-28T00:04:00.739Z,9.20
2022-11-28T00:06:28.049Z,9.13
2022-11-28T00:08:57.279Z,8.99
2022-11-28T00:11:24.189Z,8.81
2022-11-28T00:13:51.026Z,8.64
2022-11-28T00:16:20.775Z,8.60
2022-11-28T00:18:48.345Z,8.68
2022-11-28T00:21:14.848Z,8.78
2022-11-28T00:23:42.823Z,8.84
2022-11-28T00:26:18.549Z,8.91
2022-11-28T00:28:45.133Z,8.91
2022-11-28T00:31:13.333Z,8.93
2022-11-28T00:33:40.810Z,8.94
2022-11-28T00:36:08.061Z,8.98
2022-11-28T00:38:34.641Z,8.96
2022-11-28T00:41:02.392Z,8.90
2022-11-28T00:43:29.200Z,8.99
2022-11-28T00:45:55.994Z,9.09
2022-11-28T00:48:23.703Z,9.05
2022-11-28T00:50:51.466Z,8.92
2022-11-28T00:53:17.990Z,8.85
2022-11-28T00:55:44.741Z,8.79
2022-11-28T00:58:11.363Z,8.86
2022-11-28T01:00:38.216Z,8.95
2022-11-28T01:03:05.096Z,8.96
2022-11-28T01:05:31.625Z,8.94
2022-11-28T01:07:58.540Z,8.87
2022-11-28T01:10:26.426Z,8.76
2022-11-28T01:12:53.246Z,8.79
2022-11-28T01:15:19.880Z,8.83
2022-11-28T01:17:46.520Z,8.80
2022-11-28T01:20:13.304Z,8.70
2022-11-28T01:22:40.261Z,8.67
2022-11-28T01:25:06.985Z,8.64
2022-11-28T01:27:33.566Z,8.64
2022-11-28T01:30:00.198Z,8.67
2022-11-28T01:32:27.059Z,8.74
2022-11-28T01:34:53.556Z,8.76
2022-11-28T01:37:20.283Z,8.76
2022-11-28T01:39:46.789Z,8.80
2022-11-28T01:42:17.547Z,8.77
2022-11-28T01:44:48.011Z,8.69
2022-11-28T01:47:17.324Z,8.52
2022-11-28T01:49:44.924Z,8.44
2022-11-28T01:52:14.659Z,8.21
2022-11-28T01:54:43.902Z,8.00
2022-11-28T01:57:14.721Z,7.96
2022-11-28T01:59:43.549Z,7.77
2022-11-28T02:02:15.064Z,7.64
2022-11-28T02:04:41.963Z,7.99
2022-11-28T02:07:08.949Z,8.42
2022-11-28T02:09:35.587Z,8.51
2022-11-28T02:12:11.474Z,8.39
2022-11-28T02:14:54.959Z,7.95
2022-11-28T02:17:27.749Z,7.48
2022-11-28T02:20:13.131Z,7.45
2022-11-28T02:22:47.386Z,7.34
2022-11-28T02:25:17.085Z,7.05
2022-11-28T02:27:43.586Z,7.10
2022-11-28T02:30:19.455Z,7.11
2022-11-28T02:32:55.132Z,7.22
2022-11-28T02:35:40.373Z,7.63
2022-11-28T02:38:10.009Z,7.90
2022-11-28T02:40:37.038Z,8.11
2022-11-28T02:43:14.207Z,8.35
2022-11-28T02:45:49.126Z,8.37
2022-11-28T02:48:34.750Z,8.35
2022-11-28T02:51:11.438Z,8.28
2022-11-28T02:53:38.731Z,8.16
2022-11-28T02:56:05.425Z,8.22
2022-11-28T02:58:32.008Z,8.20
2022-11-28T03:00:58.618Z,7.90
2022-11-28T03:03:35.721Z,7.61
2022-11-28T03:06:32.010Z,7.63
2022-11-28T03:09:04.630Z,7.84
2022-11-28T03:11:46.311Z,7.72
2022-11-28T03:14:19.309Z,7.48
2022-11-28T03:16:50.886Z,7.53
2022-11-28T03:19:17.412Z,7.46
2022-11-28T03:21:44.030Z,7.00
2022-11-28T03:24:14.642Z,6.97
2022-11-28T03:26:41.204Z,7.39
2022-11-28T03:29:26.372Z,7.48
2022-11-28T03:32:14.052Z,7.05
2022-11-28T03:34:45.192Z,6.71
2022-11-28T03:37:15.091Z,6.83
2022-11-28T03:39:45.828Z,7.25
2022-11-28T03:42:16.154Z,7.63
2022-11-28T03:44:55.853Z,7.83
2022-11-28T03:47:24.948Z,7.84
2022-11-28T03:49:54.246Z,7.97
2022-11-28T03:52:27.492Z,7.97
2022-11-28T03:55:05.012Z,8.06
2022-11-28T03:57:37.695Z,8.10
2022-11-28T04:00:08.825Z,8.16
2022-11-28T04:02:44.666Z,8.25
2022-11-28T04:05:11.236Z,8.17
2022-11-28T04:07:44.059Z,8.02
2022-11-28T04:10:16.419Z,8.04
2022-11-28T04:12:46.146Z,8.13
2022-11-28T04:15:20.621Z,8.10
2022-11-28T04:17:54.215Z,8.15
2022-11-28T04:20:26.700Z,8.24
2022-11-28T04:22:59.471Z,8.21
2022-11-28T04:25:28.501Z,8.27
2022-11-28T04:28:08.012Z,8.30
2022-11-28T04:30:36.345Z,8.47
2022-11-28T04:33:05.479Z,8.62
2022-11-28T04:35:41.265Z,8.61
2022-11-28T04:38:10.223Z,8.54
2022-11-28T04:40:57.010Z,8.46
2022-11-28T04:43:25.768Z,8.44
2022-11-28T04:45:57.864Z,8.40
2022-11-28T04:48:26.734Z,8.25
2022-11-28T04:51:06.001Z,8.26
2022-11-28T04:53:39.357Z,8.21
2022-11-28T04:56:15.349Z,8.13
2022-11-28T04:58:44.559Z,8.30
2022-11-28T05:01:14.243Z,8.41
2022-11-28T05:03:42.726Z,8.45
2022-11-28T05:06:10.159Z,8.53
2022-11-28T05:08:36.724Z,8.31
2022-11-28T05:11:03.454Z,8.16
2022-11-28T05:13:30.197Z,8.26
2022-11-28T05:15:59.292Z,8.32
2022-11-28T05:18:25.936Z,8.40
2022-11-28T05:20:52.545Z,8.38
2022-11-28T05:23:19.207Z,7.97
2022-11-28T05:25:45.950Z,7.80
2022-11-28T05:28:12.515Z,7.86
2022-11-28T05:30:39.439Z,8.02
2022-11-28T05:33:06.151Z,8.07
2022-11-28T05:35:32.904Z,8.15
2022-11-28T05:37:59.629Z,8.29
2022-11-28T05:40:26.280Z,8.36
2022-11-28T05:42:52.749Z,8.38
2022-11-28T05:45:19.354Z,8.19
2022-11-28T05:47:45.890Z,8.19
2022-11-28T05:50:12.365Z,8.21
2022-11-28T05:52:39.136Z,8.12
2022-11-28T05:55:06.462Z,8.24
2022-11-28T05:57:32.981Z,8.28
2022-11-28T05:59:59.726Z,8.33
2022-11-28T06:02:26.266Z,8.26
2022-11-28T06:04:53.475Z,7.98
2022-11-28T06:07:20.318Z,7.83
2022-11-28T06:09:47.287Z,7.81
2022-11-28T06:12:13.954Z,7.93
2022-11-28T06:14:40.451Z,7.90
2022-11-28T06:17:07.272Z,7.88
2022-11-28T06:19:33.834Z,7.80
2022-11-28T06:22:00.538Z,7.77
2022-11-28T06:24:27.115Z,7.71
2022-11-28T06:26:54.584Z,7.66
2022-11-28T06:29:21.270Z,7.59
2022-11-28T06:31:48.090Z,7.57
2022-11-28T06:34:15.157Z,7.57
2022-11-28T06:36:42.406Z,7.54
2022-11-28T06:39:11.744Z,7.54
2022-11-28T06:41:38.415Z,7.50
2022-11-28T06:44:05.350Z,7.59
2022-11-28T06:46:32.163Z,7.67
2022-11-28T06:48:59.142Z,7.75
2022-11-28T06:51:25.871Z,7.90
2022-11-28T06:53:53.532Z,8.06
2022-11-28T06:56:20.724Z,8.02
2022-11-28T06:58:52.430Z,8.01
2022-11-28T07:01:20.437Z,8.01
2022-11-28T07:03:47.831Z,7.97
2022-11-28T07:06:15.206Z,7.96
2022-11-28T07:08:42.817Z,8.01
2022-11-28T07:11:23.670Z,8.10
2022-11-28T07:13:50.831Z,8.18
2022-11-28T07:16:21.947Z,8.36
2022-11-28T07:18:49.168Z,8.48
2022-11-28T07:21:16.782Z,8.58
2022-11-28T07:23:44.149Z,8.66
2022-11-28T07:26:12.247Z,8.72
2022-11-28T07:28:39.460Z,8.63
2022-11-28T07:31:14.079Z,8.53
2022-11-28T07:33:41.603Z,8.63
2022-11-28T07:36:14.311Z,8.79
2022-11-28T07:38:40.981Z,8.93
2022-11-28T07:41:09.080Z,9.02
2022-11-28T07:43:36.161Z,9.10
2022-11-28T07:46:03.960Z,9.18
2022-11-28T07:48:31.354Z,9.18
2022-11-28T07:50:58.236Z,9.23
2022-11-28T07:53:26.925Z,9.29
2022-11-28T07:55:53.525Z,9.32
2022-11-28T07:58:21.584Z,9.31
2022-11-28T08:00:48.576Z,9.41
2022-11-28T08:03:15.285Z,9.40
2022-11-28T08:05:48.724Z,9.34
2022-11-28T08:08:16.614Z,9.46
2022-11-28T08:10:43.891Z,9.67
2022-11-28T08:13:10.947Z,9.81
2022-11-28T08:15:37.965Z,9.82
2022-11-28T08:18:04.861Z,9.88
2022-11-28T08:20:31.522Z,9.98
2022-11-28T08:22:58.138Z,10.00
2022-11-28T08:25:24.665Z,9.90
2022-11-28T08:27:51.215Z,9.99
2022-11-28T08:30:17.763Z,10.13
2022-11-28T08:32:44.283Z,10.19
2022-11-28T08:35:10.790Z,10.16
2022-11-28T08:37:37.570Z,10.23
2022-11-28T08:40:04.435Z,10.40
2022-11-28T08:42:30.932Z,10.68
2022-11-28T08:44:57.667Z,10.77
2022-11-28T08:47:24.402Z,10.86
2022-11-28T08:49:50.936Z,11.08
2022-11-28T08:52:17.536Z,11.34
2022-11-28T08:54:44.224Z,11.58
2022-11-28T08:57:11.015Z,11.83
2022-11-28T08:59:37.696Z,12.03
2022-11-28T09:02:04.341Z,12.06
2022-11-28T09:04:30.912Z,12.07
2022-11-28T09:06:57.499Z,12.08
2022-11-28T09:09:25.598Z,12.09
2022-11-28T09:11:54.093Z,12.12
2022-11-28T09:14:20.995Z,12.10
2022-11-28T09:16:47.694Z,12.01
2022-11-28T09:19:14.473Z,11.89
2022-11-28T09:21:41.567Z,11.91
2022-11-28T09:24:08.730Z,11.75
2022-11-28T09:26:35.405Z,11.62
2022-11-28T09:29:01.949Z,11.63
2022-11-28T09:31:28.549Z,11.55
2022-11-28T09:33:55.932Z,11.50
2022-11-28T09:36:23.746Z,11.42
2022-11-28T09:38:50.395Z,11.28
2022-11-28T09:41:32.329Z,11.22
2022-11-28T09:44:11.150Z,11.14
2022-11-28T09:46:38.275Z,11.09
2022-11-28T09:49:13.744Z,11.05
2022-11-28T09:51:47.274Z,10.96
2022-11-28T09:54:19.669Z,10.87
2022-11-28T09:56:47.980Z,10.83
2022-11-28T09:59:25.768Z,10.87
2022-11-28T10:02:01.028Z,10.95
2022-11-28T10:04:36.980Z,10.87
2022-11-28T10:07:15.513Z,10.78
2022-11-28T10:10:05.484Z,10.72
2022-11-28T10:12:32.388Z,10.87
2022-11-28T10:14:58.960Z,11.04
2022-11-28T10:17:44.310Z,11.16
2022-11-28T10:20:18.856Z,11.12
2022-11-28T10:22:45.309Z,11.14
2022-11-28T10:25:16.535Z,11.19
2022-11-28T10:27:43.173Z,11.29
2022-11-28T10:30:12.487Z,11.27
2022-11-28T10:32:41.832Z,11.06
2022-11-28T10:35:11.251Z,10.88
2022-11-28T10:37:38.328Z,10.80
2022-11-28T10:40:23.882Z,10.83
2022-11-28T10:43:00.676Z,10.80
2022-11-28T10:46:05.790Z,10.82
2022-11-28T10:48:40.092Z,11.07
2022-11-28T10:51:13.122Z,11.32
2022-11-28T10:53:45.804Z,11.42
2022-11-28T10:56:21.307Z,11.57
2022-11-28T10:59:06.726Z,11.73
2022-11-28T11:01:37.018Z,11.93
2022-11-28T11:04:04.212Z,12.07
2022-11-28T11:06:41.376Z,12.16
2022-11-28T11:09:14.506Z,12.22
2022-11-28T11:11:52.028Z,12.09
2022-11-28T11:14:31.848Z,12.04
2022-11-28T11:16:59.158Z,12.11
2022-11-28T11:19:29.283Z,12.07
2022-11-28T11:22:05.170Z,12.14
2022-11-28T11:24:32.099Z,12.21
2022-11-28T11:27:14.070Z,12.25
2022-11-28T11:29:41.571Z,12.36
2022-11-28T11:32:18.704Z,12.41
2022-11-28T11:34:45.860Z,12.43
2022-11-28T11:37:31.469Z,12.52
2022-11-28T11:39:58.589Z,12.68
2022-11-28T11:42:26.670Z,12.73
2022-11-28T11:44:55.984Z,12.60
2022-11-28T11:47:42.911Z,12.39
2022-11-28T11:50:16.984Z,12.31
2022-11-28T11:52:43.595Z,12.14
2022-11-28T11:55:10.275Z,12.18
2022-11-28T11:57:38.787Z,12.18
2022-11-28T12:00:06.323Z,11.95
2022-11-28T12:02:44.728Z,11.81
2022-11-28T12:05:13.187Z,11.70
2022-11-28T12:07:55.365Z,11.37
2022-11-28T12:10:24.385Z,10.74
2022-11-28T12:12:51.429Z,9.97
2022-11-28T12:15:25.653Z,9.69
2022-11-28T12:17:57.242Z,9.47
2022-11-28T12:20:32.192Z,9.00
2022-11-28T12:22:58.867Z,8.64
2022-11-28T12:25:39.279Z,8.39
2022-11-28T12:28:11.906Z,8.13
2022-11-28T12:30:40.502Z,7.88
2022-11-28T12:33:16.170Z,7.94
2022-11-28T12:35:47.028Z,8.21
2022-11-28T12:38:36.795Z,8.48
2022-11-28T12:41:12.309Z,8.83
2022-11-28T12:43:42.208Z,9.13
2022-11-28T12:46:14.638Z,9.31
2022-11-28T12:48:53.090Z,9.46
2022-11-28T12:51:29.467Z,9.64
2022-11-28T12:53:56.129Z,9.81
2022-11-28T12:56:25.527Z,9.87
2022-11-28T12:59:11.032Z,9.93
2022-11-28T13:01:56.046Z,10.01
2022-11-28T13:04:41.519Z,10.10
2022-11-28T13:07:08.344Z,10.22
2022-11-28T13:09:42.902Z,10.32
2022-11-28T13:12:20.657Z,10.36
2022-11-28T13:14:59.884Z,10.40
2022-11-28T13:17:30.653Z,10.40
2022-11-28T13:20:15.505Z,10.44
2022-11-28T13:22:45.008Z,10.52
2022-11-28T13:25:19.442Z,10.46
2022-11-28T13:28:02.732Z,10.38
2022-11-28T13:30:33.498Z,10.32
2022-11-28T13:33:00.168Z,10.32
2022-11-28T13:35:28.010Z,10.27
2022-11-28T13:40:47.926Z,10.20
2022-11-28T13:43:21.807Z,10.12
2022-11-28T13:45:49.060Z,10.01
2022-11-28T13:51:31.593Z,9.78
2022-11-28T13:54:17.614Z,9.69
2022-11-28T13:57:04.644Z,9.65
2022-11-28T13:59:32.764Z,9.72
2022-11-28T14:02:01.231Z,9.69
2022-11-28T14:04:29.172Z,9.67
2022-11-28T14:07:01.124Z,9.61
2022-11-28T14:09:35.696Z,9.54
2022-11-28T14:12:23.082Z,9.48
2022-11-28T14:15:01.473Z,9.42
2022-11-28T14:17:28.173Z,9.32
2022-11-28T14:20:00.752Z,9.23
2022-11-28T14:22:33.523Z,9.17
2022-11-28T14:25:08.904Z,9.13
2022-11-28T14:27:37.652Z,9.05
2022-11-28T14:30:06.515Z,9.00
2022-11-28T14:32:36.289Z,8.94
2022-11-28T14:35:04.299Z,8.96
2022-11-28T14:37:34.072Z,9.01
2022-11-28T14:40:00.647Z,9.06
2022-11-28T14:45:32.854Z,8.99
2022-11-28T14:48:14.377Z,9.02
2022-11-28T14:50:46.271Z,9.03
2022-11-28T14:53:31.886Z,9.00
2022-11-28T14:56:11.423Z,8.98
2022-11-28T14:58:38.207Z,9.03
2022-11-28T15:01:09.811Z,9.07
2022-11-28T15:03:48.223Z,9.07
2022-11-28T15:06:20.235Z,9.06
2022-11-28T15:09:03.292Z,9.03
2022-11-28T15:11:33.224Z,9.01
2022-11-28T15:14:20.439Z,8.91
2022-11-28T15:16:55.813Z,8.84
2022-11-28T15:19:24.590Z,8.80
2022-11-28T15:21:52.269Z,8.85
2022-11-28T15:24:18.866Z,8.83
2022-11-28T15:26:45.554Z,8.81
2022-11-28T15:29:18.904Z,8.80
2022-11-28T15:31:46.747Z,8.75
2022-11-28T15:34:21.221Z,8.78
2022-11-28T15:36:50.341Z,8.84
2022-11-28T15:39:24.077Z,8.82
2022-11-28T15:41:51.197Z,8.86
2022-11-28T15:44:17.736Z,8.89
2022-11-28T15:46:44.345Z,8.94
2022-11-28T15:49:24.975Z,8.98
2022-11-28T15:51:52.760Z,9.00
2022-11-28T15:54:34.519Z,8.96
2022-11-28T15:57:01.565Z,8.89
2022-11-28T15:59:29.204Z,8.82
2022-11-28T16:02:01.381Z,8.76
2022-11-28T16:04:29.020Z,8.68
2022-11-28T16:06:56.407Z,8.63
2022-11-28T16:09:29.905Z,8.70
2022-11-28T16:11:56.547Z,8.77
2022-11-28T16:14:32.090Z,8.87
2022-11-28T16:17:00.776Z,8.89
2022-11-28T16:19:30.174Z,8.89
2022-11-28T16:22:10.978Z,8.94
2022-11-28T16:24:43.876Z,9.02
2022-11-28T16:27:52.652Z,9.05
2022-11-28T16:30:22.336Z,9.16
2022-11-28T16:32:50.164Z,9.14
2022-11-28T16:35:29.025Z,9.15
2022-11-28T16:38:05.825Z,9.17
2022-11-28T16:40:32.326Z,9.20
2022-11-28T16:42:59.031Z,9.28
2022-11-28T16:45:28.812Z,9.34
2022-11-28T16:48:05.414Z,9.40
2022-11-28T16:50:32.130Z,9.40
2022-11-28T16:52:58.651Z,9.41
2022-11-28T16:55:29.609Z,9.34
2022-11-28T16:58:09.879Z,9.27
2022-11-28T17:00:38.579Z,9.23
2022-11-28T17:03:10.276Z,9.15
2022-11-28T17:05:39.488Z,9.01
2022-11-28T17:08:07.389Z,8.97
2022-11-28T17:10:33.927Z,8.82
2022-11-28T17:13:00.735Z,8.66
2022-11-28T17:15:27.466Z,8.59
2022-11-28T17:17:56.657Z,8.49
2022-11-28T17:20:23.284Z,8.46
2022-11-28T17:22:50.750Z,8.44
2022-11-28T17:25:19.229Z,8.41
2022-11-28T17:27:47.465Z,8.45
2022-11-28T17:30:14.658Z,8.42
2022-11-28T17:32:41.372Z,8.33
2022-11-28T17:35:19.709Z,8.27
2022-11-28T17:37:46.259Z,8.22
2022-11-28T17:40:31.539Z,8.07
2022-11-28T17:42:58.420Z,8.11
2022-11-28T17:45:26.130Z,8.19
2022-11-28T17:47:53.605Z,8.36
2022-11-28T17:50:20.755Z,8.51
2022-11-28T17:52:47.413Z,8.64
2022-11-28T17:55:14.204Z,8.72
2022-11-28T17:57:40.784Z,8.74
2022-11-28T18:00:08.424Z,8.76
2022-11-28T18:02:41.562Z,8.72
2022-11-28T18:05:09.111Z,8.82
2022-11-28T18:07:35.966Z,9.00
2022-11-28T18:10:03.075Z,9.03
2022-11-28T18:12:29.876Z,9.07
2022-11-28T18:14:59.103Z,9.15
2022-11-28T18:17:25.773Z,9.18
2022-11-28T18:19:57.307Z,9.13
2022-11-28T18:22:24.553Z,9.06
2022-11-28T18:24:52.070Z,8.95
2022-11-28T18:27:18.569Z,8.92
2022-11-28T18:29:45.403Z,8.93
2022-11-28T18:32:12.306Z,8.96
2022-11-28T18:34:38.929Z,8.91
2022-11-28T18:37:05.561Z,8.89
2022-11-28T18:39:32.709Z,8.85
2022-11-28T18:41:59.965Z,8.90
2022-11-28T18:44:27.749Z,8.96
2022-11-28T18:46:54.235Z,9.03
2022-11-28T18:49:20.779Z,9.00
2022-11-28T18:51:48.042Z,9.00
2022-11-28T18:54:20.531Z,9.12
2022-11-28T18:56:48.205Z,9.31
2022-11-28T18:59:14.737Z,9.41
2022-11-28T19:01:41.308Z,9.38
2022-11-28T19:04:10.585Z,9.36
2022-11-28T19:06:38.865Z,9.41
2022-11-28T19:09:07.301Z,9.46
2022-11-28T19:11:34.048Z,9.50
2022-11-28T19:14:00.985Z,9.51
2022-11-28T19:16:31.200Z,9.47
2022-11-28T19:18:58.239Z,9.50
2022-11-28T19:21:25.899Z,9.50
2022-11-28T19:23:53.779Z,9.46
2022-11-28T19:26:21.595Z,9.51
2022-11-28T19:28:48.829Z,9.37
2022-11-28T19:31:20.525Z,8.97
2022-11-28T19:34:00.237Z,8.76
2022-11-28T19:36:29.692Z,8.58
2022-11-28T19:38:57.003Z,8.77
2022-11-28T19:41:23.671Z,8.97
2022-11-28T19:43:53.770Z,9.05
2022-11-28T19:46:20.648Z,9.17
2022-11-28T19:48:50.608Z,9.13
2022-11-28T19:51:18.728Z,9.08
2022-11-28T19:53:45.400Z,9.08
2022-11-28T19:56:15.843Z,9.05
2022-11-28T19:58:42.965Z,9.01
2022-11-28T20:01:11.878Z,8.98
2022-11-28T20:03:40.557Z,9.02
2022-11-28T20:06:09.328Z,8.95
2022-11-28T20:08:36.728Z,8.83
2022-11-28T20:11:10.798Z,8.54
2022-11-28T20:13:37.455Z,8.51
2022-11-28T20:16:05.477Z,8.71
2022-11-28T20:18:32.927Z,8.71
2022-11-28T20:21:07.471Z,8.50
2022-11-28T20:23:39.931Z,8.34
2022-11-28T20:26:07.140Z,8.22
2022-11-28T20:28:35.022Z,8.00
2022-11-28T20:31:02.807Z,7.95
2022-11-28T20:33:29.808Z,7.83
2022-11-28T20:36:04.270Z,7.68
2022-11-28T20:38:31.011Z,7.59
2022-11-28T20:41:04.817Z,7.53
2022-11-28T20:43:32.113Z,7.55
2022-11-28T20:46:10.453Z,7.39
2022-11-28T20:48:37.535Z,7.23
2022-11-28T20:51:30.564Z,7.13
2022-11-28T20:53:57.940Z,7.11
2022-11-28T20:56:26.075Z,7.15
2022-11-28T20:58:52.809Z,7.12
2022-11-28T21:01:21.100Z,6.87
2022-11-28T21:03:48.028Z,6.62
2022-11-28T21:06:14.908Z,6.42
2022-11-28T21:08:41.644Z,6.25
2022-11-28T21:11:25.295Z,6.45
2022-11-28T21:13:59.783Z,6.65
2022-11-28T21:16:28.018Z,6.80
2022-11-28T21:18:55.741Z,6.95
2022-11-28T21:21:24.218Z,6.93
2022-11-28T21:23:50.751Z,6.76
2022-11-28T21:26:24.885Z,6.53
2022-11-28T21:28:55.598Z,6.61
2022-11-28T21:31:26.875Z,6.50
2022-11-28T21:33:54.810Z,6.32
2022-11-28T21:36:22.070Z,6.43
2022-11-28T21:38:52.119Z,6.52
2022-11-28T21:41:19.203Z,6.45
2022-11-28T21:43:45.698Z,6.48
2022-11-28T21:46:12.781Z,6.60
2022-11-28T21:48:39.401Z,6.66
2022-11-28T21:51:06.096Z,6.44
2022-11-28T21:53:33.637Z,6.19
2022-11-28T21:56:00.830Z,5.96
2022-11-28T21:58:28.344Z,5.91
2022-11-28T22:00:59.256Z,5.84
2022-11-28T22:03:27.389Z,5.69
2022-11-28T22:06:07.066Z,5.77
2022-11-28T22:08:34.860Z,5.90
2022-11-28T22:11:07.764Z,5.93
2022-11-28T22:13:35.396Z,5.88
2022-11-28T22:16:09.663Z,5.84
2022-11-28T22:18:36.969Z,6.06
2022-11-28T22:21:22.323Z,6.23
2022-11-28T22:23:52.227Z,5.98
2022-11-28T22:26:18.794Z,5.81
2022-11-28T22:28:50.429Z,5.72
2022-11-28T22:31:20.228Z,5.59
2022-11-28T22:33:48.430Z,5.51
2022-11-28T22:36:16.623Z,5.46
2022-11-28T22:38:43.447Z,5.77
2022-11-28T22:41:12.130Z,6.26
2022-11-28T22:43:39.279Z,6.70
2022-11-28T22:46:06.451Z,6.98
2022-11-28T22:48:34.031Z,7.14
2022-11-28T22:51:05.710Z,7.27
2022-11-28T22:53:33.026Z,7.26
2022-11-28T22:56:07.112Z,7.08
2022-11-28T22:58:42.438Z,6.74
2022-11-28T23:01:14.076Z,6.79
2022-11-28T23:03:40.686Z,6.86
2022-11-28T23:06:08.507Z,6.75
2022-11-28T23:08:35.299Z,6.41
2022-11-28T23:11:06.734Z,6.18
2022-11-28T23:13:34.663Z,6.00
2022-11-28T23:16:20.873Z,6.13
2022-11-28T23:18:49.646Z,6.32
2022-11-28T23:21:17.501Z,6.29
2022-11-28T23:23:45.574Z,6.12
2022-11-28T23:26:13.811Z,6.06
2022-11-28T23:28:40.290Z,6.00
2022-11-28T23:31:11.319Z,5.75
2022-11-28T23:33:38.434Z,5.39
2022-11-28T23:36:20.055Z,5.10
2022-11-28T23:38:48.130Z,4.89
2022-11-28T23:41:14.696Z,4.79
2022-11-28T23:43:41.705Z,4.69
2022-11-28T23:46:08.848Z,4.54
2022-11-28T23:48:35.554Z,4.55
2022-11-28T23:51:03.074Z,4.30
2022-11-28T23:53:29.684Z,4.21
2022-11-28T23:56:01.522Z,4.25
2022-11-28T23:58:28.387Z,4.62
